Accueil
METAR-TAF:

METAR-TAF

Aéroports :

Wittering, Angleterre

latitude: 52-37N, longitude: 000-28W, altitude: 84 m

Observation

Le bulletin a été fait il y a 23 minutes, à 08:50 UTC
Vent 15 kt de ouest
Température 16°C
Humidité 72%
Pression 1014 hPa
Visibilité 10 km ou plus
Nuages épars à une hauteur de 2000 ft

METAR: EGXT 190850Z 26015KT 9999 SCT020 16/11 Q1014 WHT

Heure: 10:13 (09:13 UTC)

Prévision

Le bulletin a été fait il y a 1 heure et 44 minutes, à 07:29 UTC
Prévision valable du 19 à 09 UTC au 19 à 18 UTC
Vent 16 kt de ouest avec des rafales jusqu'à 28 kt
Visibilité 10 km ou plus
Nuages épars à une hauteur de 2700 ft

TAF: EGXT 190729Z 1909/1918 27016G28KT 9999 SCT027

Observations et prévisions météorologiques de plus de 4000 aéroports (messages METAR et TAF).

Les stations disponibles sont représentées par des disques jaunes et rouges sur la carte.

Passer la souris dessus pour voir le nom de la station.

Cliquer dessus pour voir les observations et prévisions météorologiques.

Pour changer de carte: cliquez sur les boutons verts avec une croix noire pour zoomer, sur le bouton vert avec un tiret pour effectuer un zoom arrière, ou sur les flèches vertes pour les cartes adjacentes.


METAR-TAF: